sensor_id;sensor_type;location;lat;lon;timestamp;P1;durP1;ratioP1;P2;durP2;ratioP2
26562;SDS011;14217;50.986;5.826;2023-05-31T00:01:45;0.60;;;0.55;;
26562;SDS011;14217;50.986;5.826;2023-05-31T00:06:48;1.15;;;0.70;;
26562;SDS011;14217;50.986;5.826;2023-05-31T00:11:50;1.23;;;0.73;;
26562;SDS011;14217;50.986;5.826;2023-05-31T00:16:52;0.40;;;0.40;;
26562;SDS011;14217;50.986;5.826;2023-05-31T00:22:14;0.70;;;0.70;;
26562;SDS011;14217;50.986;5.826;2023-05-31T00:27:18;0.50;;;0.50;;
26562;SDS011;14217;50.986;5.826;2023-05-31T00:32:20;1.42;;;0.70;;
26562;SDS011;14217;50.986;5.826;2023-05-31T00:37:22;2.42;;;0.88;;
26562;SDS011;14217;50.986;5.826;2023-05-31T00:42:24;0.60;;;0.60;;
26562;SDS011;14217;50.986;5.826;2023-05-31T00:47:27;0.57;;;0.57;;
26562;SDS011;14217;50.986;5.826;2023-05-31T00:52:30;0.70;;;0.43;;
26562;SDS011;14217;50.986;5.826;2023-05-31T00:57:34;0.85;;;0.65;;
26562;SDS011;14217;50.986;5.826;2023-05-31T01:02:37;0.52;;;0.52;;
26562;SDS011;14217;50.986;5.826;2023-05-31T01:07:40;1.52;;;0.95;;
26562;SDS011;14217;50.986;5.826;2023-05-31T01:18:20;0.95;;;0.93;;
26562;SDS011;14217;50.986;5.826;2023-05-31T01:29:45;0.75;;;0.75;;
26562;SDS011;14217;50.986;5.826;2023-05-31T01:34:49;0.50;;;0.50;;
26562;SDS011;14217;50.986;5.826;2023-05-31T01:39:51;1.13;;;0.60;;
26562;SDS011;14217;50.986;5.826;2023-05-31T01:44:54;1.23;;;0.70;;
26562;SDS011;14217;50.986;5.826;2023-05-31T01:49:57;1.00;;;0.70;;
26562;SDS011;14217;50.986;5.826;2023-05-31T01:55:01;1.08;;;0.85;;
26562;SDS011;14217;50.986;5.826;2023-05-31T02:00:04;1.33;;;0.90;;
26562;SDS011;14217;50.986;5.826;2023-05-31T02:05:13;0.68;;;0.55;;
26562;SDS011;14217;50.986;5.826;2023-05-31T02:10:15;0.65;;;0.55;;
26562;SDS011;14217;50.986;5.826;2023-05-31T02:15:18;1.10;;;0.73;;
26562;SDS011;14217;50.986;5.826;2023-05-31T02:20:21;0.73;;;0.73;;
26562;SDS011;14217;50.986;5.826;2023-05-31T02:25:23;1.38;;;0.70;;
26562;SDS011;14217;50.986;5.826;2023-05-31T02:30:29;1.17;;;1.08;;
26562;SDS011;14217;50.986;5.826;2023-05-31T02:35:32;0.82;;;0.70;;
26562;SDS011;14217;50.986;5.826;2023-05-31T02:40:35;1.15;;;0.60;;
26562;SDS011;14217;50.986;5.826;2023-05-31T02:45:37;0.68;;;0.65;;
26562;SDS011;14217;50.986;5.826;2023-05-31T02:50:39;2.03;;;1.02;;
26562;SDS011;14217;50.986;5.826;2023-05-31T02:55:41;0.55;;;0.55;;
26562;SDS011;14217;50.986;5.826;2023-05-31T03:00:44;1.13;;;0.80;;
26562;SDS011;14217;50.986;5.826;2023-05-31T03:05:46;0.73;;;0.73;;
26562;SDS011;14217;50.986;5.826;2023-05-31T03:10:49;0.60;;;0.60;;
26562;SDS011;14217;50.986;5.826;2023-05-31T03:15:51;1.20;;;0.88;;
26562;SDS011;14217;50.986;5.826;2023-05-31T03:20:53;0.65;;;0.65;;
26562;SDS011;14217;50.986;5.826;2023-05-31T03:25:55;0.63;;;0.63;;
26562;SDS011;14217;50.986;5.826;2023-05-31T03:30:57;5.28;;;1.00;;
26562;SDS011;14217;50.986;5.826;2023-05-31T03:36:00;0.63;;;0.60;;
26562;SDS011;14217;50.986;5.826;2023-05-31T03:41:02;0.70;;;0.65;;
26562;SDS011;14217;50.986;5.826;2023-05-31T03:46:04;0.70;;;0.70;;
26562;SDS011;14217;50.986;5.826;2023-05-31T03:51:06;0.70;;;0.70;;
26562;SDS011;14217;50.986;5.826;2023-05-31T03:56:08;1.20;;;0.70;;
26562;SDS011;14217;50.986;5.826;2023-05-31T04:01:10;0.70;;;0.60;;
26562;SDS011;14217;50.986;5.826;2023-05-31T04:06:13;0.80;;;0.80;;
26562;SDS011;14217;50.986;5.826;2023-05-31T04:11:15;6.03;;;0.68;;
26562;SDS011;14217;50.986;5.826;2023-05-31T04:16:17;1.17;;;0.90;;
26562;SDS011;14217;50.986;5.826;2023-05-31T04:21:19;1.70;;;1.00;;
26562;SDS011;14217;50.986;5.826;2023-05-31T04:26:22;1.08;;;0.98;;
26562;SDS011;14217;50.986;5.826;2023-05-31T04:31:27;1.13;;;0.90;;
26562;SDS011;14217;50.986;5.826;2023-05-31T04:36:49;1.15;;;0.85;;
26562;SDS011;14217;50.986;5.826;2023-05-31T04:41:52;1.75;;;0.90;;
26562;SDS011;14217;50.986;5.826;2023-05-31T04:46:54;1.20;;;1.10;;
26562;SDS011;14217;50.986;5.826;2023-05-31T04:51:58;0.80;;;0.70;;
26562;SDS011;14217;50.986;5.826;2023-05-31T04:57:01;0.73;;;0.73;;
26562;SDS011;14217;50.986;5.826;2023-05-31T05:02:04;1.38;;;0.75;;
26562;SDS011;14217;50.986;5.826;2023-05-31T05:07:06;1.20;;;1.02;;
26562;SDS011;14217;50.986;5.826;2023-05-31T05:12:09;0.77;;;0.77;;
26562;SDS011;14217;50.986;5.826;2023-05-31T05:17:12;1.00;;;0.82;;
26562;SDS011;14217;50.986;5.826;2023-05-31T05:22:14;0.80;;;0.80;;
26562;SDS011;14217;50.986;5.826;2023-05-31T05:27:16;1.25;;;0.98;;
26562;SDS011;14217;50.986;5.826;2023-05-31T05:32:18;0.65;;;0.63;;
26562;SDS011;14217;50.986;5.826;2023-05-31T05:37:20;0.65;;;0.65;;
26562;SDS011;14217;50.986;5.826;2023-05-31T05:42:22;2.47;;;0.80;;
26562;SDS011;14217;50.986;5.826;2023-05-31T05:47:25;0.60;;;0.60;;
26562;SDS011;14217;50.986;5.826;2023-05-31T05:52:27;1.42;;;1.00;;
26562;SDS011;14217;50.986;5.826;2023-05-31T05:57:29;2.33;;;0.80;;
26562;SDS011;14217;50.986;5.826;2023-05-31T06:02:32;1.98;;;0.88;;
26562;SDS011;14217;50.986;5.826;2023-05-31T06:07:34;0.55;;;0.55;;
26562;SDS011;14217;50.986;5.826;2023-05-31T06:12:36;0.82;;;0.80;;
26562;SDS011;14217;50.986;5.826;2023-05-31T06:17:38;1.10;;;1.00;;
26562;SDS011;14217;50.986;5.826;2023-05-31T06:22:41;1.17;;;0.90;;
26562;SDS011;14217;50.986;5.826;2023-05-31T06:27:43;1.60;;;1.10;;
26562;SDS011;14217;50.986;5.826;2023-05-31T06:32:47;0.98;;;0.65;;
26562;SDS011;14217;50.986;5.826;2023-05-31T06:37:49;0.80;;;0.80;;
26562;SDS011;14217;50.986;5.826;2023-05-31T06:42:53;1.27;;;0.90;;
26562;SDS011;14217;50.986;5.826;2023-05-31T06:47:55;1.00;;;0.77;;
26562;SDS011;14217;50.986;5.826;2023-05-31T06:53:00;1.73;;;1.08;;
26562;SDS011;14217;50.986;5.826;2023-05-31T06:58:02;1.20;;;1.10;;
26562;SDS011;14217;50.986;5.826;2023-05-31T07:03:04;1.83;;;0.98;;
26562;SDS011;14217;50.986;5.826;2023-05-31T07:08:07;4.13;;;1.00;;
26562;SDS011;14217;50.986;5.826;2023-05-31T07:13:09;2.55;;;2.30;;
26562;SDS011;14217;50.986;5.826;2023-05-31T07:18:11;5.72;;;2.20;;
26562;SDS011;14217;50.986;5.826;2023-05-31T07:23:14;4.00;;;2.20;;
26562;SDS011;14217;50.986;5.826;2023-05-31T07:28:17;3.30;;;2.28;;
26562;SDS011;14217;50.986;5.826;2023-05-31T07:33:19;3.33;;;2.10;;
26562;SDS011;14217;50.986;5.826;2023-05-31T07:38:29;2.50;;;1.42;;
26562;SDS011;14217;50.986;5.826;2023-05-31T07:43:32;3.05;;;1.98;;
26562;SDS011;14217;50.986;5.826;2023-05-31T07:48:36;2.05;;;1.40;;
26562;SDS011;14217;50.986;5.826;2023-05-31T07:53:38;4.10;;;2.42;;
26562;SDS011;14217;50.986;5.826;2023-05-31T07:58:41;7.38;;;2.33;;
26562;SDS011;14217;50.986;5.826;2023-05-31T08:03:43;5.70;;;1.98;;
26562;SDS011;14217;50.986;5.826;2023-05-31T08:08:45;4.85;;;1.77;;
26562;SDS011;14217;50.986;5.826;2023-05-31T08:13:48;4.28;;;1.60;;
26562;SDS011;14217;50.986;5.826;2023-05-31T08:18:50;3.03;;;2.00;;
26562;SDS011;14217;50.986;5.826;2023-05-31T08:23:52;3.58;;;1.60;;
26562;SDS011;14217;50.986;5.826;2023-05-31T08:28:54;2.65;;;1.75;;
26562;SDS011;14217;50.986;5.826;2023-05-31T08:33:58;3.65;;;1.65;;
26562;SDS011;14217;50.986;5.826;2023-05-31T08:39:00;4.80;;;1.55;;
26562;SDS011;14217;50.986;5.826;2023-05-31T08:44:03;1.92;;;1.70;;
26562;SDS011;14217;50.986;5.826;2023-05-31T08:49:09;2.92;;;1.77;;
26562;SDS011;14217;50.986;5.826;2023-05-31T08:54:12;3.72;;;1.45;;
26562;SDS011;14217;50.986;5.826;2023-05-31T08:59:15;3.03;;;1.33;;
26562;SDS011;14217;50.986;5.826;2023-05-31T09:04:20;3.05;;;1.42;;
26562;SDS011;14217;50.986;5.826;2023-05-31T09:09:23;1.63;;;1.02;;
26562;SDS011;14217;50.986;5.826;2023-05-31T09:14:26;2.45;;;1.30;;
26562;SDS011;14217;50.986;5.826;2023-05-31T09:19:29;1.92;;;1.67;;
26562;SDS011;14217;50.986;5.826;2023-05-31T09:24:32;3.08;;;1.38;;
26562;SDS011;14217;50.986;5.826;2023-05-31T09:29:36;1.88;;;0.90;;
26562;SDS011;14217;50.986;5.826;2023-05-31T09:34:38;3.67;;;1.33;;
26562;SDS011;14217;50.986;5.826;2023-05-31T09:39:48;1.63;;;1.45;;
26562;SDS011;14217;50.986;5.826;2023-05-31T09:44:56;1.08;;;0.90;;
26562;SDS011;14217;50.986;5.826;2023-05-31T09:50:01;1.92;;;1.30;;
26562;SDS011;14217;50.986;5.826;2023-05-31T09:55:06;2.42;;;1.20;;
26562;SDS011;14217;50.986;5.826;2023-05-31T10:00:10;4.30;;;1.55;;
26562;SDS011;14217;50.986;5.826;2023-05-31T10:05:17;2.03;;;1.23;;
26562;SDS011;14217;50.986;5.826;2023-05-31T10:10:21;1.58;;;1.10;;
26562;SDS011;14217;50.986;5.826;2023-05-31T10:15:24;1.52;;;1.10;;
26562;SDS011;14217;50.986;5.826;2023-05-31T10:21:02;1.90;;;1.00;;
26562;SDS011;14217;50.986;5.826;2023-05-31T10:26:17;1.95;;;1.40;;
26562;SDS011;14217;50.986;5.826;2023-05-31T10:31:20;1.63;;;1.05;;
26562;SDS011;14217;50.986;5.826;2023-05-31T10:36:24;4.57;;;1.48;;
26562;SDS011;14217;50.986;5.826;2023-05-31T10:41:28;7.85;;;1.80;;
26562;SDS011;14217;50.986;5.826;2023-05-31T10:46:38;8.88;;;1.58;;
26562;SDS011;14217;50.986;5.826;2023-05-31T10:51:42;4.25;;;1.65;;
26562;SDS011;14217;50.986;5.826;2023-05-31T10:56:52;2.90;;;1.80;;
26562;SDS011;14217;50.986;5.826;2023-05-31T11:01:55;3.17;;;1.73;;
26562;SDS011;14217;50.986;5.826;2023-05-31T11:07:18;2.75;;;1.63;;
26562;SDS011;14217;50.986;5.826;2023-05-31T11:12:33;1.88;;;1.52;;
26562;SDS011;14217;50.986;5.826;2023-05-31T11:17:40;2.80;;;1.33;;
26562;SDS011;14217;50.986;5.826;2023-05-31T11:28:20;6.70;;;1.40;;
26562;SDS011;14217;50.986;5.826;2023-05-31T11:33:22;4.15;;;2.03;;
26562;SDS011;14217;50.986;5.826;2023-05-31T11:38:25;3.38;;;1.73;;
26562;SDS011;14217;50.986;5.826;2023-05-31T11:43:27;1.98;;;1.23;;
26562;SDS011;14217;50.986;5.826;2023-05-31T11:48:30;4.90;;;1.55;;
26562;SDS011;14217;50.986;5.826;2023-05-31T11:53:39;3.20;;;1.50;;
26562;SDS011;14217;50.986;5.826;2023-05-31T11:58:45;3.88;;;1.20;;
26562;SDS011;14217;50.986;5.826;2023-05-31T12:03:48;2.13;;;1.15;;
26562;SDS011;14217;50.986;5.826;2023-05-31T12:08:51;1.30;;;0.98;;
26562;SDS011;14217;50.986;5.826;2023-05-31T12:13:54;3.78;;;1.10;;
26562;SDS011;14217;50.986;5.826;2023-05-31T12:18:56;1.80;;;1.00;;
26562;SDS011;14217;50.986;5.826;2023-05-31T12:23:58;1.60;;;1.05;;
26562;SDS011;14217;50.986;5.826;2023-05-31T12:29:12;1.95;;;1.17;;
26562;SDS011;14217;50.986;5.826;2023-05-31T12:34:17;1.05;;;0.93;;
26562;SDS011;14217;50.986;5.826;2023-05-31T12:39:20;1.40;;;1.00;;
26562;SDS011;14217;50.986;5.826;2023-05-31T12:44:23;1.85;;;0.93;;
26562;SDS011;14217;50.986;5.826;2023-05-31T12:49:28;3.05;;;1.45;;
26562;SDS011;14217;50.986;5.826;2023-05-31T12:54:34;2.80;;;1.00;;
26562;SDS011;14217;50.986;5.826;2023-05-31T12:59:40;2.05;;;1.20;;
26562;SDS011;14217;50.986;5.826;2023-05-31T13:04:42;3.58;;;1.38;;
26562;SDS011;14217;50.986;5.826;2023-05-31T13:09:44;1.15;;;1.05;;
26562;SDS011;14217;50.986;5.826;2023-05-31T13:14:46;2.47;;;1.33;;
26562;SDS011;14217;50.986;5.826;2023-05-31T13:19:49;3.95;;;0.98;;
26562;SDS011;14217;50.986;5.826;2023-05-31T13:25:11;4.47;;;1.48;;
26562;SDS011;14217;50.986;5.826;2023-05-31T13:30:13;2.08;;;1.10;;
26562;SDS011;14217;50.986;5.826;2023-05-31T13:35:15;2.55;;;1.08;;
26562;SDS011;14217;50.986;5.826;2023-05-31T13:40:18;3.58;;;1.27;;
26562;SDS011;14217;50.986;5.826;2023-05-31T13:45:20;3.75;;;1.10;;
26562;SDS011;14217;50.986;5.826;2023-05-31T13:50:22;6.07;;;1.63;;
26562;SDS011;14217;50.986;5.826;2023-05-31T13:55:24;30.35;;;1.58;;
26562;SDS011;14217;50.986;5.826;2023-05-31T14:00:26;0.82;;;0.70;;
26562;SDS011;14217;50.986;5.826;2023-05-31T14:05:29;8.60;;;2.00;;
26562;SDS011;14217;50.986;5.826;2023-05-31T14:10:31;1.70;;;0.95;;
26562;SDS011;14217;50.986;5.826;2023-05-31T14:15:35;3.83;;;1.33;;
26562;SDS011;14217;50.986;5.826;2023-05-31T14:20:37;1.65;;;1.15;;
26562;SDS011;14217;50.986;5.826;2023-05-31T14:25:39;1.85;;;1.23;;
26562;SDS011;14217;50.986;5.826;2023-05-31T14:30:41;2.92;;;1.10;;
26562;SDS011;14217;50.986;5.826;2023-05-31T14:35:43;6.40;;;0.90;;
26562;SDS011;14217;50.986;5.826;2023-05-31T14:40:46;1.15;;;0.95;;
26562;SDS011;14217;50.986;5.826;2023-05-31T14:45:50;1.20;;;0.70;;
26562;SDS011;14217;50.986;5.826;2023-05-31T14:50:52;0.95;;;0.82;;
26562;SDS011;14217;50.986;5.826;2023-05-31T14:55:54;1.10;;;0.65;;
26562;SDS011;14217;50.986;5.826;2023-05-31T15:01:16;8.45;;;1.58;;
26562;SDS011;14217;50.986;5.826;2023-05-31T15:06:19;1.55;;;1.10;;
26562;SDS011;14217;50.986;5.826;2023-05-31T15:11:21;8.57;;;1.02;;
26562;SDS011;14217;50.986;5.826;2023-05-31T15:16:23;1.80;;;0.93;;
26562;SDS011;14217;50.986;5.826;2023-05-31T15:21:27;1.85;;;0.90;;
26562;SDS011;14217;50.986;5.826;2023-05-31T15:26:29;5.40;;;0.80;;
26562;SDS011;14217;50.986;5.826;2023-05-31T15:31:32;1.75;;;0.93;;
26562;SDS011;14217;50.986;5.826;2023-05-31T15:36:35;2.97;;;1.20;;
26562;SDS011;14217;50.986;5.826;2023-05-31T15:41:38;5.60;;;1.10;;
26562;SDS011;14217;50.986;5.826;2023-05-31T15:46:40;1.20;;;0.90;;
26562;SDS011;14217;50.986;5.826;2023-05-31T15:51:44;2.92;;;0.90;;
26562;SDS011;14217;50.986;5.826;2023-05-31T15:56:46;1.63;;;0.85;;
26562;SDS011;14217;50.986;5.826;2023-05-31T16:01:48;1.40;;;0.80;;
26562;SDS011;14217;50.986;5.826;2023-05-31T16:06:50;1.05;;;0.70;;
26562;SDS011;14217;50.986;5.826;2023-05-31T16:11:53;0.77;;;0.60;;
26562;SDS011;14217;50.986;5.826;2023-05-31T16:16:55;1.27;;;0.75;;
26562;SDS011;14217;50.986;5.826;2023-05-31T16:21:57;3.80;;;1.00;;
26562;SDS011;14217;50.986;5.826;2023-05-31T16:27:00;1.17;;;0.95;;
26562;SDS011;14217;50.986;5.826;2023-05-31T16:32:02;1.48;;;1.00;;
26562;SDS011;14217;50.986;5.826;2023-05-31T16:37:05;1.45;;;0.70;;
26562;SDS011;14217;50.986;5.826;2023-05-31T16:42:10;1.17;;;1.05;;
26562;SDS011;14217;50.986;5.826;2023-05-31T16:47:12;1.40;;;0.88;;
26562;SDS011;14217;50.986;5.826;2023-05-31T16:52:14;2.38;;;1.35;;
26562;SDS011;14217;50.986;5.826;2023-05-31T16:57:17;1.10;;;0.82;;
26562;SDS011;14217;50.986;5.826;2023-05-31T17:02:19;1.42;;;1.15;;
26562;SDS011;14217;50.986;5.826;2023-05-31T17:07:21;3.35;;;1.25;;
26562;SDS011;14217;50.986;5.826;2023-05-31T17:12:23;1.00;;;0.88;;
26562;SDS011;14217;50.986;5.826;2023-05-31T17:17:25;1.58;;;1.05;;
26562;SDS011;14217;50.986;5.826;2023-05-31T17:22:27;2.83;;;0.70;;
26562;SDS011;14217;50.986;5.826;2023-05-31T17:27:29;1.88;;;1.10;;
26562;SDS011;14217;50.986;5.826;2023-05-31T17:32:32;14.20;;;1.45;;
26562;SDS011;14217;50.986;5.826;2023-05-31T17:37:34;1.33;;;0.80;;
26562;SDS011;14217;50.986;5.826;2023-05-31T17:42:36;4.07;;;1.20;;
26562;SDS011;14217;50.986;5.826;2023-05-31T17:47:38;2.17;;;1.30;;
26562;SDS011;14217;50.986;5.826;2023-05-31T17:52:40;2.67;;;1.20;;
26562;SDS011;14217;50.986;5.826;2023-05-31T17:57:42;1.20;;;0.85;;
26562;SDS011;14217;50.986;5.826;2023-05-31T18:02:46;2.90;;;1.33;;
26562;SDS011;14217;50.986;5.826;2023-05-31T18:07:49;3.88;;;1.33;;
26562;SDS011;14217;50.986;5.826;2023-05-31T18:12:52;1.55;;;1.00;;
26562;SDS011;14217;50.986;5.826;2023-05-31T18:17:54;1.80;;;1.08;;
26562;SDS011;14217;50.986;5.826;2023-05-31T18:22:56;3.67;;;1.05;;
26562;SDS011;14217;50.986;5.826;2023-05-31T18:27:58;7.28;;;1.65;;
26562;SDS011;14217;50.986;5.826;2023-05-31T18:33:00;2.22;;;1.15;;
26562;SDS011;14217;50.986;5.826;2023-05-31T18:38:03;5.25;;;1.08;;
26562;SDS011;14217;50.986;5.826;2023-05-31T18:43:05;1.73;;;0.90;;
26562;SDS011;14217;50.986;5.826;2023-05-31T18:48:07;3.53;;;1.00;;
26562;SDS011;14217;50.986;5.826;2023-05-31T18:53:09;2.63;;;1.48;;
26562;SDS011;14217;50.986;5.826;2023-05-31T18:58:11;2.47;;;1.05;;
26562;SDS011;14217;50.986;5.826;2023-05-31T19:03:14;1.77;;;1.05;;
26562;SDS011;14217;50.986;5.826;2023-05-31T19:08:16;1.13;;;0.60;;
26562;SDS011;14217;50.986;5.826;2023-05-31T19:13:20;1.08;;;0.90;;
26562;SDS011;14217;50.986;5.826;2023-05-31T19:18:22;2.15;;;1.00;;
26562;SDS011;14217;50.986;5.826;2023-05-31T19:23:24;3.13;;;0.98;;
26562;SDS011;14217;50.986;5.826;2023-05-31T19:28:28;2.75;;;1.10;;
26562;SDS011;14217;50.986;5.826;2023-05-31T19:33:30;1.17;;;1.00;;
26562;SDS011;14217;50.986;5.826;2023-05-31T19:38:32;2.85;;;1.13;;
26562;SDS011;14217;50.986;5.826;2023-05-31T19:43:34;2.28;;;1.13;;
26562;SDS011;14217;50.986;5.826;2023-05-31T19:48:36;2.30;;;1.02;;
26562;SDS011;14217;50.986;5.826;2023-05-31T19:53:38;1.73;;;1.15;;
26562;SDS011;14217;50.986;5.826;2023-05-31T19:58:40;1.63;;;1.00;;
26562;SDS011;14217;50.986;5.826;2023-05-31T20:03:42;1.40;;;0.80;;
26562;SDS011;14217;50.986;5.826;2023-05-31T20:08:45;1.42;;;0.95;;
26562;SDS011;14217;50.986;5.826;2023-05-31T20:13:47;1.20;;;0.65;;
26562;SDS011;14217;50.986;5.826;2023-05-31T20:18:49;1.58;;;0.90;;
26562;SDS011;14217;50.986;5.826;2023-05-31T20:23:52;2.55;;;0.82;;
26562;SDS011;14217;50.986;5.826;2023-05-31T20:28:54;1.58;;;0.98;;
26562;SDS011;14217;50.986;5.826;2023-05-31T20:33:56;1.10;;;0.75;;
26562;SDS011;14217;50.986;5.826;2023-05-31T20:38:58;2.30;;;0.63;;
26562;SDS011;14217;50.986;5.826;2023-05-31T20:44:01;1.40;;;0.77;;
26562;SDS011;14217;50.986;5.826;2023-05-31T20:49:03;2.03;;;0.75;;
26562;SDS011;14217;50.986;5.826;2023-05-31T20:54:06;5.30;;;0.90;;
26562;SDS011;14217;50.986;5.826;2023-05-31T20:59:08;3.92;;;0.90;;
26562;SDS011;14217;50.986;5.826;2023-05-31T21:04:11;1.88;;;0.88;;
26562;SDS011;14217;50.986;5.826;2023-05-31T21:09:13;3.40;;;1.55;;
26562;SDS011;14217;50.986;5.826;2023-05-31T21:14:15;2.10;;;1.08;;
26562;SDS011;14217;50.986;5.826;2023-05-31T21:19:18;1.23;;;1.10;;
26562;SDS011;14217;50.986;5.826;2023-05-31T21:24:20;6.00;;;1.45;;
26562;SDS011;14217;50.986;5.826;2023-05-31T21:29:23;2.53;;;0.70;;
26562;SDS011;14217;50.986;5.826;2023-05-31T21:34:25;2.33;;;0.95;;
26562;SDS011;14217;50.986;5.826;2023-05-31T21:39:28;1.25;;;0.93;;
26562;SDS011;14217;50.986;5.826;2023-05-31T21:44:30;4.20;;;0.98;;
26562;SDS011;14217;50.986;5.826;2023-05-31T21:49:32;3.05;;;1.10;;
26562;SDS011;14217;50.986;5.826;2023-05-31T21:54:35;1.33;;;1.00;;
26562;SDS011;14217;50.986;5.826;2023-05-31T21:59:37;1.02;;;0.93;;
26562;SDS011;14217;50.986;5.826;2023-05-31T22:04:39;1.75;;;0.80;;
26562;SDS011;14217;50.986;5.826;2023-05-31T22:09:41;1.30;;;0.90;;
26562;SDS011;14217;50.986;5.826;2023-05-31T22:14:44;1.85;;;1.10;;
26562;SDS011;14217;50.986;5.826;2023-05-31T22:19:46;2.20;;;0.70;;
26562;SDS011;14217;50.986;5.826;2023-05-31T22:24:48;3.90;;;0.63;;
26562;SDS011;14217;50.986;5.826;2023-05-31T22:29:58;1.20;;;0.80;;
26562;SDS011;14217;50.986;5.826;2023-05-31T22:35:00;2.33;;;0.73;;
26562;SDS011;14217;50.986;5.826;2023-05-31T22:40:02;1.05;;;0.52;;
26562;SDS011;14217;50.986;5.826;2023-05-31T22:45:05;2.75;;;1.20;;
26562;SDS011;14217;50.986;5.826;2023-05-31T22:50:07;0.75;;;0.75;;
26562;SDS011;14217;50.986;5.826;2023-05-31T22:55:10;0.60;;;0.60;;
26562;SDS011;14217;50.986;5.826;2023-05-31T23:00:16;0.82;;;0.60;;
26562;SDS011;14217;50.986;5.826;2023-05-31T23:05:19;1.25;;;0.73;;
26562;SDS011;14217;50.986;5.826;2023-05-31T23:10:24;0.90;;;0.90;;
26562;SDS011;14217;50.986;5.826;2023-05-31T23:15:29;1.45;;;0.57;;
26562;SDS011;14217;50.986;5.826;2023-05-31T23:20:37;1.60;;;0.80;;
26562;SDS011;14217;50.986;5.826;2023-05-31T23:25:40;2.25;;;0.80;;
26562;SDS011;14217;50.986;5.826;2023-05-31T23:30:42;2.13;;;1.27;;
26562;SDS011;14217;50.986;5.826;2023-05-31T23:35:44;1.77;;;0.90;;
26562;SDS011;14217;50.986;5.826;2023-05-31T23:40:46;1.10;;;1.00;;
26562;SDS011;14217;50.986;5.826;2023-05-31T23:45:48;6.60;;;0.60;;
26562;SDS011;14217;50.986;5.826;2023-05-31T23:50:51;1.02;;;0.60;;
26562;SDS011;14217;50.986;5.826;2023-05-31T23:55:53;0.90;;;0.80;;
